Time;durP1;ratioP1;P1;durP2;ratioP2;P2;SDS_P1;SDS_P2;PMS_P1;PMS_P2;Temp;Humidity;BMP_temperature;BMP_pressure;BME280_temperature;BME280_humidity;BME280_pressure;Samples;Min_cycle;Max_cycle;Signal;HPM_P1;HPM_P2
2024/02/22 00:04:56;;;;;;;2.53;1.30;;;;;;;;;;10572867;27;20043;-74
2024/02/22 00:10:00;;;;;;;1.80;0.70;;;;;;;;;;10564751;27;20048;-76
2024/02/22 00:15:05;;;;;;;1.75;0.70;;;;;;;;;;10569220;27;20402;-74
2024/02/22 00:20:08;;;;;;;1.38;0.52;;;;;;;;;;10570111;27;20053;-75
2024/02/22 00:25:11;;;;;;;0.47;0.47;;;;;;;;;;10564267;27;20051;-75
2024/02/22 00:30:15;;;;;;;1.20;0.68;;;;;;;;;;10568567;27;20087;-74
2024/02/22 00:35:22;;;;;;;1.10;0.55;;;;;;;;;;10573717;27;20070;-75
2024/02/22 00:40:25;;;;;;;1.13;0.70;;;;;;;;;;10565315;27;20050;-75
2024/02/22 00:45:33;;;;;;;2.13;0.70;;;;;;;;;;10571883;27;20048;-75
2024/02/22 00:50:36;;;;;;;0.60;0.38;;;;;;;;;;10556473;27;20043;-75
2024/02/22 00:55:40;;;;;;;1.98;1.17;;;;;;;;;;10577357;27;20445;-75
2024/02/22 01:00:44;;;;;;;2.30;1.10;;;;;;;;;;10562164;27;20117;-75
2024/02/22 01:05:46;;;;;;;;;;;;;;;;;;10562797;27;20139;-75
2024/02/22 01:10:49;;;;;;;0.80;0.52;;;;;;;;;;10578586;27;19920;-76
2024/02/22 01:15:53;;;;;;;1.10;0.57;;;;;;;;;;10568134;27;20036;-75
2024/02/22 01:20:56;;;;;;;1.80;0.63;;;;;;;;;;10571450;27;20102;-74
2024/02/22 01:25:59;;;;;;;0.52;0.50;;;;;;;;;;10577715;27;20150;-75
2024/02/22 01:31:09;;;;;;;0.50;0.40;;;;;;;;;;10563915;27;20047;-75
2024/02/22 01:36:12;;;;;;;1.02;0.60;;;;;;;;;;10565685;27;20036;-75
2024/02/22 01:41:15;;;;;;;0.95;0.35;;;;;;;;;;10567627;27;20039;-74
2024/02/22 01:46:20;;;;;;;0.20;0.17;;;;;;;;;;10570394;27;20500;-75
2024/02/22 01:51:23;;;;;;;2.58;0.57;;;;;;;;;;10563529;27;20494;-75
2024/02/22 01:56:26;;;;;;;0.43;0.22;;;;;;;;;;10552781;28;20412;-76
2024/02/22 02:01:30;;;;;;;0.15;0.08;;;;;;;;;;10580281;27;20040;-76
2024/02/22 02:06:32;;;;;;;0.65;0.25;;;;;;;;;;10575550;27;20039;-76
2024/02/22 02:11:35;;;;;;;0.95;0.28;;;;;;;;;;10580588;27;20043;-75
2024/02/22 02:16:40;;;;;;;0.45;0.10;;;;;;;;;;10575888;27;20043;-77
2024/02/22 02:21:49;;;;;;;0.45;0.30;;;;;;;;;;10578282;27;20070;-76
2024/02/22 02:26:54;;;;;;;0.38;0.22;;;;;;;;;;10569231;28;20040;-76
2024/02/22 02:31:56;;;;;;;0.30;0.13;;;;;;;;;;10570702;28;20056;-75
2024/02/22 02:36:59;;;;;;;0.65;0.25;;;;;;;;;;10564949;28;20424;-76
2024/02/22 02:42:05;;;;;;;0.10;0.10;;;;;;;;;;10567026;28;20496;-76
2024/02/22 02:47:08;;;;;;;0.20;0.10;;;;;;;;;;10560570;28;20075;-75
2024/02/22 02:52:11;;;;;;;0.45;0.20;;;;;;;;;;10564636;28;20047;-75
2024/02/22 02:57:15;;;;;;;0.82;0.28;;;;;;;;;;10574948;28;20072;-76
2024/02/22 03:02:17;;;;;;;0.30;0.30;;;;;;;;;;10555358;28;20412;-77
2024/02/22 03:07:21;;;;;;;0.50;0.20;;;;;;;;;;10565043;28;20588;-77
2024/02/22 03:12:25;;;;;;;0.00;0.00;;;;;;;;;;10571237;27;20055;-77
2024/02/22 03:17:28;;;;;;;1.23;0.20;;;;;;;;;;10568764;27;20044;-76
2024/02/22 03:22:30;;;;;;;0.22;0.10;;;;;;;;;;10569214;27;20390;-74
2024/02/22 03:27:36;;;;;;;0.38;0.25;;;;;;;;;;10564735;27;20035;-76
2024/02/22 03:32:38;;;;;;;0.20;0.20;;;;;;;;;;10565811;27;20048;-75
2024/02/22 03:37:41;;;;;;;0.93;0.28;;;;;;;;;;10571715;27;20078;-76
2024/02/22 03:42:45;;;;;;;0.13;0.10;;;;;;;;;;10566364;27;20134;-75
2024/02/22 03:47:48;;;;;;;0.52;0.38;;;;;;;;;;10561992;27;20085;-74
2024/02/22 03:52:50;;;;;;;0.70;0.25;;;;;;;;;;10571080;27;20036;-75
2024/02/22 03:57:55;;;;;;;1.00;0.50;;;;;;;;;;10561555;27;20040;-74
2024/02/22 04:02:57;;;;;;;;;;;;;;;;;;10568135;27;20138;-75
2024/02/22 04:08:00;;;;;;;1.25;0.32;;;;;;;;;;10578687;27;19919;-74
2024/02/22 04:13:04;;;;;;;0.63;0.30;;;;;;;;;;10567540;27;20538;-74
2024/02/22 04:18:07;;;;;;;0.47;0.47;;;;;;;;;;10567124;27;20439;-75
2024/02/22 04:23:10;;;;;;;0.30;0.27;;;;;;;;;;10565838;27;20054;-75
2024/02/22 04:28:17;;;;;;;0.20;0.20;;;;;;;;;;10580292;27;20047;-74
2024/02/22 04:33:21;;;;;;;1.33;0.80;;;;;;;;;;10577318;27;20044;-75
2024/02/22 04:38:24;;;;;;;1.30;1.00;;;;;;;;;;10568449;27;20135;-76
2024/02/22 04:43:29;;;;;;;1.63;0.68;;;;;;;;;;10565129;28;20069;-75
2024/02/22 04:48:32;;;;;;;0.40;0.40;;;;;;;;;;10560330;27;20066;-75
2024/02/22 04:53:35;;;;;;;1.27;0.40;;;;;;;;;;10571606;27;20048;-75
2024/02/22 04:58:40;;;;;;;0.70;0.55;;;;;;;;;;10569367;27;20123;-75
2024/02/22 05:03:42;;;;;;;;;;;;;;;;;;10572356;27;20067;-75
2024/02/22 05:08:45;;;;;;;1.15;0.55;;;;;;;;;;10567675;27;19942;-75
2024/02/22 05:13:50;;;;;;;0.90;0.73;;;;;;;;;;10560797;27;20130;-76
2024/02/22 05:18:53;;;;;;;0.85;0.30;;;;;;;;;;10577048;27;20051;-73
2024/02/22 05:23:55;;;;;;;1.45;0.80;;;;;;;;;;10566183;27;20116;-75
2024/02/22 05:29:00;;;;;;;0.77;0.55;;;;;;;;;;10572480;27;20088;-75
2024/02/22 05:34:03;;;;;;;1.52;0.55;;;;;;;;;;10573028;27;20044;-74
2024/02/22 05:39:07;;;;;;;0.70;0.55;;;;;;;;;;10567111;27;20110;-77
2024/02/22 05:44:11;;;;;;;1.13;0.77;;;;;;;;;;10560753;27;20042;-75
2024/02/22 05:49:14;;;;;;;0.57;0.50;;;;;;;;;;10574809;27;20734;-76
2024/02/22 05:54:17;;;;;;;0.85;0.52;;;;;;;;;;10561420;27;20554;-77
2024/02/22 05:59:21;;;;;;;1.27;0.80;;;;;;;;;;10566089;27;20048;-75
2024/02/22 06:04:24;;;;;;;1.80;0.60;;;;;;;;;;10559810;28;20301;-76
2024/02/22 06:09:26;;;;;;;1.83;0.93;;;;;;;;;;10557179;27;20074;-76
2024/02/22 06:14:30;;;;;;;0.90;0.60;;;;;;;;;;10553610;27;20078;-75
2024/02/22 06:19:33;;;;;;;1.35;0.70;;;;;;;;;;10568637;27;20056;-75
2024/02/22 06:24:35;;;;;;;1.67;0.65;;;;;;;;;;10552998;27;20063;-75
2024/02/22 06:29:42;;;;;;;2.65;0.90;;;;;;;;;;10553231;27;20498;-78
2024/02/22 06:34:45;;;;;;;0.90;0.82;;;;;;;;;;10573148;28;20122;-75
2024/02/22 06:39:48;;;;;;;2.28;1.15;;;;;;;;;;10560578;28;20040;-75
2024/02/22 06:44:52;;;;;;;2.88;1.50;;;;;;;;;;10576678;27;20039;-74
2024/02/22 06:49:55;;;;;;;2.65;0.90;;;;;;;;;;10580915;27;20039;-74
2024/02/22 06:54:58;;;;;;;0.98;0.82;;;;;;;;;;10568873;28;20088;-75
2024/02/22 07:00:02;;;;;;;2.42;1.45;;;;;;;;;;10565935;27;20036;-76
2024/02/22 07:05:05;;;;;;;2.60;1.25;;;;;;;;;;10570264;27;20163;-74
2024/02/22 07:10:13;;;;;;;2.75;0.95;;;;;;;;;;10571034;27;20115;-75
2024/02/22 07:15:17;;;;;;;1.05;0.88;;;;;;;;;;10548355;28;20040;-76
2024/02/22 07:20:20;;;;;;;;;;;;;;;;;;10577099;27;20081;-74
2024/02/22 07:25:23;;;;;;;3.42;1.63;;;;;;;;;;10562650;27;19920;-74
2024/02/22 07:30:28;;;;;;;2.97;0.87;;;;;;;;;;10567862;27;20109;-76
2024/02/22 07:35:30;;;;;;;4.88;1.73;;;;;;;;;;10566293;27;20059;-77
2024/02/22 07:40:33;;;;;;;2.67;1.17;;;;;;;;;;10570837;27;20062;-76
2024/02/22 07:45:38;;;;;;;1.80;1.08;;;;;;;;;;10561251;27;20611;-75
2024/02/22 07:50:41;;;;;;;3.58;1.85;;;;;;;;;;10567049;27;20055;-76
2024/02/22 07:55:45;;;;;;;4.40;2.05;;;;;;;;;;10561287;27;20047;-76
2024/02/22 08:00:49;;;;;;;3.60;1.30;;;;;;;;;;10553400;27;20039;-75
2024/02/22 08:05:52;;;;;;;5.07;1.85;;;;;;;;;;10563789;27;20511;-75
2024/02/22 08:10:55;;;;;;;4.23;1.67;;;;;;;;;;10567212;27;20123;-75
2024/02/22 08:16:05;;;;;;;0.77;0.35;;;;;;;;;;10571424;27;20065;-74
2024/02/22 08:21:08;;;;;;;2.88;1.60;;;;;;;;;;10563295;27;20131;-75
2024/02/22 08:26:10;;;;;;;4.82;2.10;;;;;;;;;;10566537;27;20048;-75
2024/02/22 08:31:14;;;;;;;4.28;1.88;;;;;;;;;;10568213;27;20066;-75
2024/02/22 08:36:18;;;;;;;3.45;1.95;;;;;;;;;;10564882;27;20051;-75
2024/02/22 08:41:22;;;;;;;4.13;2.00;;;;;;;;;;10567070;27;20114;-74
2024/02/22 08:46:28;;;;;;;4.10;1.33;;;;;;;;;;10568715;27;20039;-76
2024/02/22 08:51:31;;;;;;;3.15;1.50;;;;;;;;;;10567332;27;20156;-75
2024/02/22 08:56:34;;;;;;;3.88;1.15;;;;;;;;;;10582391;27;20054;-74
2024/02/22 09:01:38;;;;;;;4.72;2.03;;;;;;;;;;10573909;27;20040;-75
2024/02/22 09:06:42;;;;;;;4.63;2.15;;;;;;;;;;10571579;27;20063;-74
2024/02/22 09:11:45;;;;;;;2.00;1.05;;;;;;;;;;10563445;27;20075;-75
2024/02/22 09:16:49;;;;;;;4.75;1.65;;;;;;;;;;10569475;27;20127;-75
2024/02/22 09:21:54;;;;;;;5.43;1.40;;;;;;;;;;10571790;27;20081;-76
2024/02/22 09:26:57;;;;;;;6.13;2.47;;;;;;;;;;10560762;28;20047;-75
2024/02/22 09:32:01;;;;;;;6.85;2.92;;;;;;;;;;10563546;27;20043;-75
2024/02/22 09:37:05;;;;;;;5.45;2.72;;;;;;;;;;10555497;28;20128;-76
2024/02/22 09:42:11;;;;;;;5.70;2.33;;;;;;;;;;10561718;27;20046;-76
2024/02/22 09:47:16;;;;;;;4.55;1.92;;;;;;;;;;10571432;27;20532;-76
2024/02/22 09:52:19;;;;;;;4.80;1.75;;;;;;;;;;10566743;27;20535;-76
2024/02/22 09:57:23;;;;;;;4.43;2.15;;;;;;;;;;10563561;27;20039;-75
2024/02/22 10:02:27;;;;;;;6.30;2.30;;;;;;;;;;10572978;27;20108;-76
2024/02/22 10:07:31;;;;;;;6.05;2.60;;;;;;;;;;10564240;27;20039;-75
2024/02/22 10:12:35;;;;;;;3.00;1.58;;;;;;;;;;10561548;27;20043;-75
2024/02/22 10:17:41;;;;;;;4.90;2.60;;;;;;;;;;10572906;27;20042;-76
2024/02/22 10:22:46;;;;;;;;;;;;;;;;;;10559719;28;20056;-76
2024/02/22 10:27:49;;;;;;;4.57;1.58;;;;;;;;;;10570357;27;20037;-76
2024/02/22 10:32:55;;;;;;;8.98;2.10;;;;;;;;;;10560521;28;20052;-75
2024/02/22 10:37:58;;;;;;;6.38;3.55;;;;;;;;;;10564619;28;20068;-77
2024/02/22 10:43:01;;;;;;;2.88;1.50;;;;;;;;;;10550523;28;20058;-76
2024/02/22 10:48:07;;;;;;;7.37;3.60;;;;;;;;;;10563898;28;20035;-76
2024/02/22 10:53:13;;;;;;;9.93;2.53;;;;;;;;;;10545763;28;20123;-75
2024/02/22 10:58:16;;;;;;;7.45;2.03;;;;;;;;;;10566615;28;20040;-76
2024/02/22 11:03:21;;;;;;;1.63;1.53;;;;;;;;;;10566495;28;20386;-76
2024/02/22 11:08:28;;;;;;;5.72;2.80;;;;;;;;;;10570092;28;20653;-77
2024/02/22 11:13:31;;;;;;;7.35;2.47;;;;;;;;;;10555529;28;20409;-76
2024/02/22 11:18:35;;;;;;;6.50;2.45;;;;;;;;;;10573054;28;20050;-76
2024/02/22 11:23:38;;;;;;;3.72;1.65;;;;;;;;;;10560096;28;20043;-77
2024/02/22 11:28:41;;;;;;;5.65;2.60;;;;;;;;;;10559342;28;20398;-76
2024/02/22 11:33:46;;;;;;;1.70;1.13;;;;;;;;;;10571410;27;20051;-76
2024/02/22 11:38:57;;;;;;;2.33;1.38;;;;;;;;;;10567470;27;20059;-76
2024/02/22 11:44:04;;;;;;;11.05;3.70;;;;;;;;;;10572328;27;20527;-77
2024/02/22 11:49:09;;;;;;;6.18;2.15;;;;;;;;;;10569167;27;20074;-76
2024/02/22 11:54:16;;;;;;;3.25;1.55;;;;;;;;;;10561030;27;20042;-77
2024/02/22 11:59:18;;;;;;;4.78;2.13;;;;;;;;;;10571428;27;20055;-75
2024/02/22 12:04:22;;;;;;;3.17;1.42;;;;;;;;;;10567285;27;20043;-76
2024/02/22 12:09:25;;;;;;;5.63;2.15;;;;;;;;;;10567582;28;20100;-76
2024/02/22 12:14:28;;;;;;;3.25;1.70;;;;;;;;;;10568418;27;20051;-75
2024/02/22 12:19:32;;;;;;;2.40;1.10;;;;;;;;;;10570958;27;20041;-75
2024/02/22 12:24:35;;;;;;;3.90;1.73;;;;;;;;;;10573459;27;20070;-78
2024/02/22 12:29:38;;;;;;;6.03;1.95;;;;;;;;;;10570637;27;20054;-76
2024/02/22 12:34:42;;;;;;;2.60;1.40;;;;;;;;;;10571672;27;20048;-75
2024/02/22 12:39:45;;;;;;;2.17;1.25;;;;;;;;;;10561179;27;20047;-76
2024/02/22 12:44:47;;;;;;;2.88;1.48;;;;;;;;;;10573036;27;20086;-76
2024/02/22 12:49:52;;;;;;;2.92;1.48;;;;;;;;;;10558159;27;20040;-76
2024/02/22 12:54:55;;;;;;;2.38;1.20;;;;;;;;;;10569125;27;20071;-75
2024/02/22 12:59:58;;;;;;;4.37;1.93;;;;;;;;;;10567785;27;20167;-75
2024/02/22 13:05:02;;;;;;;3.87;1.67;;;;;;;;;;10567778;27;20067;-77
2024/02/22 13:10:06;;;;;;;2.25;1.20;;;;;;;;;;10570573;27;20044;-78
2024/02/22 13:15:10;;;;;;;4.45;2.20;;;;;;;;;;10561578;27;20040;-77
2024/02/22 13:20:14;;;;;;;0.98;0.80;;;;;;;;;;10572428;27;20040;-74
2024/02/22 13:25:17;;;;;;;6.07;1.60;;;;;;;;;;10568440;27;20369;-76
2024/02/22 13:30:20;;;;;;;2.63;1.45;;;;;;;;;;10571121;27;20039;-75
2024/02/22 13:35:24;;;;;;;2.30;1.40;;;;;;;;;;10569869;27;20559;-75
2024/02/22 13:40:27;;;;;;;1.67;1.23;;;;;;;;;;10563917;27;20042;-76
2024/02/22 13:45:32;;;;;;;3.30;1.42;;;;;;;;;;10564453;27;20369;-75
2024/02/22 13:50:36;;;;;;;2.08;1.10;;;;;;;;;;10561297;27;20085;-75
2024/02/22 13:55:39;;;;;;;2.78;1.23;;;;;;;;;;10548287;27;20039;-75
2024/02/22 14:00:42;;;;;;;8.15;1.08;;;;;;;;;;10571335;27;20101;-76
2024/02/22 14:05:46;;;;;;;2.70;1.20;;;;;;;;;;10568538;27;21109;-75
2024/02/22 14:10:55;;;;;;;2.70;1.50;;;;;;;;;;10554845;27;20489;-75
2024/02/22 14:15:58;;;;;;;11.68;3.85;;;;;;;;;;10552259;27;20134;-77
2024/02/22 14:21:02;;;;;;;6.53;3.47;;;;;;;;;;10565142;27;20042;-76
2024/02/22 14:26:05;;;;;;;12.43;5.40;;;;;;;;;;10564748;28;20071;-75
2024/02/22 14:31:08;;;;;;;7.57;3.03;;;;;;;;;;10567384;28;20067;-74
2024/02/22 14:36:11;;;;;;;1.98;1.42;;;;;;;;;;10568196;28;20066;-75
2024/02/22 14:41:14;;;;;;;2.92;1.73;;;;;;;;;;10572882;28;20071;-76
2024/02/22 14:46:17;;;;;;;4.60;1.73;;;;;;;;;;10552366;28;20630;-76
2024/02/22 14:51:21;;;;;;;3.10;1.53;;;;;;;;;;10555719;28;20105;-77
2024/02/22 14:56:24;;;;;;;0.80;0.80;;;;;;;;;;10565760;28;20481;-78
2024/02/22 15:01:27;;;;;;;3.97;1.85;;;;;;;;;;10572305;28;20115;-76
2024/02/22 15:06:32;;;;;;;7.40;2.50;;;;;;;;;;10569708;27;20052;-78
2024/02/22 15:11:35;;;;;;;3.30;1.00;;;;;;;;;;10576305;27;20043;-77
2024/02/22 15:16:38;;;;;;;5.00;1.70;;;;;;;;;;10580034;27;20039;-76
2024/02/22 15:21:44;;;;;;;3.40;1.60;;;;;;;;;;10578950;27;20042;-76
2024/02/22 15:26:49;;;;;;;4.82;1.75;;;;;;;;;;10580161;27;20043;-77
2024/02/22 15:31:52;;;;;;;8.93;2.20;;;;;;;;;;10577636;27;20032;-75
2024/02/22 15:36:56;;;;;;;8.75;3.55;;;;;;;;;;10571698;27;20454;-77
2024/02/22 15:42:00;;;;;;;4.70;2.08;;;;;;;;;;10575008;27;20458;-75
2024/02/22 15:47:03;;;;;;;5.75;1.70;;;;;;;;;;10578071;27;20047;-77
2024/02/22 15:52:08;;;;;;;3.83;2.00;;;;;;;;;;10559652;27;20079;-77
2024/02/22 15:57:11;;;;;;;7.90;3.38;;;;;;;;;;10567852;27;20044;-76
2024/02/22 16:02:14;;;;;;;3.73;1.93;;;;;;;;;;10568566;27;20508;-77
2024/02/22 16:07:19;;;;;;;9.10;2.15;;;;;;;;;;10568247;27;20330;-77
2024/02/22 16:12:22;;;;;;;8.75;4.07;;;;;;;;;;10576891;27;20036;-76
2024/02/22 16:17:25;;;;;;;6.07;1.90;;;;;;;;;;10571258;27;20094;-76
2024/02/22 16:22:29;;;;;;;7.57;3.17;;;;;;;;;;10572463;27;20039;-76
2024/02/22 16:27:32;;;;;;;;;;;;;;;;;;10568661;27;20127;-76
2024/02/22 16:32:34;;;;;;;3.95;1.88;;;;;;;;;;10561658;27;19977;-75
2024/02/22 16:37:40;;;;;;;2.90;1.37;;;;;;;;;;10570105;27;20055;-76
2024/02/22 16:42:42;;;;;;;5.55;2.15;;;;;;;;;;10567619;27;20038;-77
2024/02/22 16:47:46;;;;;;;4.35;2.10;;;;;;;;;;10561496;27;20039;-76
2024/02/22 16:52:50;;;;;;;5.40;1.88;;;;;;;;;;10569593;27;20123;-75
2024/02/22 16:57:54;;;;;;;4.30;1.75;;;;;;;;;;10575194;27;20126;-76
2024/02/22 17:02:57;;;;;;;5.25;2.15;;;;;;;;;;10567232;27;20055;-77
2024/02/22 17:08:01;;;;;;;5.78;2.53;;;;;;;;;;10567688;27;20534;-77
2024/02/22 17:13:03;;;;;;;5.85;2.50;;;;;;;;;;10561772;28;20063;-76
2024/02/22 17:18:06;;;;;;;6.13;2.07;;;;;;;;;;10571458;27;20476;-75
2024/02/22 17:23:11;;;;;;;6.77;2.77;;;;;;;;;;10564889;27;20039;-76
2024/02/22 17:28:16;;;;;;;7.85;3.65;;;;;;;;;;10556128;28;20131;-75
2024/02/22 17:33:20;;;;;;;8.98;2.70;;;;;;;;;;10561372;27;20043;-76
2024/02/22 17:38:25;;;;;;;7.70;3.28;;;;;;;;;;10556538;27;20051;-76
2024/02/22 17:43:30;;;;;;;8.75;3.30;;;;;;;;;;10544602;28;20135;-79
2024/02/22 17:48:36;;;;;;;5.70;2.78;;;;;;;;;;10571867;27;20044;-75
2024/02/22 17:53:40;;;;;;;7.13;2.83;;;;;;;;;;10570616;27;20066;-76
2024/02/22 17:58:43;;;;;;;6.78;3.08;;;;;;;;;;10571133;28;20069;-76
2024/02/22 18:03:58;;;;;;;3.47;1.67;;;;;;;;;;10565556;28;20032;-77
2024/02/22 18:09:03;;;;;;;7.57;3.42;;;;;;;;;;10563718;28;20063;-76
2024/02/22 18:14:06;;;;;;;6.40;2.30;;;;;;;;;;10564882;28;20139;-76
2024/02/22 18:19:10;;;;;;;2.75;1.45;;;;;;;;;;10559336;28;20046;-77
2024/02/22 18:24:15;;;;;;;5.57;2.30;;;;;;;;;;10568895;28;20028;-77
2024/02/22 18:29:18;;;;;;;8.65;3.15;;;;;;;;;;10561392;28;20040;-77
2024/02/22 18:34:23;;;;;;;6.07;2.45;;;;;;;;;;10551137;28;20040;-77
2024/02/22 18:39:28;;;;;;;8.77;3.65;;;;;;;;;;10558442;28;20052;-77
2024/02/22 18:44:34;;;;;;;7.55;2.80;;;;;;;;;;10557942;28;20068;-75
2024/02/22 18:49:40;;;;;;;2.92;1.55;;;;;;;;;;10582723;28;20043;-76
2024/02/22 18:54:47;;;;;;;3.83;1.67;;;;;;;;;;10510391;28;1108810;-76
2024/02/22 18:59:50;;;;;;;5.22;3.45;;;;;;;;;;10548190;28;20043;-76
2024/02/22 19:04:56;;;;;;;9.48;4.18;;;;;;;;;;10579927;28;20074;-76
2024/02/22 19:10:00;;;;;;;8.52;4.00;;;;;;;;;;10559191;28;20035;-77
2024/02/22 19:15:03;;;;;;;;;;;;;;;;;;10562151;28;20127;-77
2024/02/22 19:20:08;;;;;;;11.68;4.68;;;;;;;;;;10561416;28;20009;-76
2024/02/22 19:25:12;;;;;;;11.80;4.40;;;;;;;;;;10555965;28;20043;-77
2024/02/22 19:30:15;;;;;;;;;;;;;;;;;;10556267;28;20043;-76
2024/02/22 19:35:19;;;;;;;7.95;2.90;;;;;;;;;;10559616;28;20198;-75
2024/02/22 19:40:24;;;;;;;14.20;3.63;;;;;;;;;;10563185;28;20048;-75
2024/02/22 19:45:27;;;;;;;;;;;;;;;;;;10565881;28;20051;-76
2024/02/22 19:50:36;;;;;;;4.40;1.53;;;;;;;;;;10571111;27;19924;-76
2024/02/22 19:55:42;;;;;;;5.57;2.08;;;;;;;;;;10562812;27;20322;-75
2024/02/22 20:00:48;;;;;;;4.00;2.17;;;;;;;;;;10571822;27;20104;-76
2024/02/22 20:05:51;;;;;;;7.80;3.90;;;;;;;;;;10567185;27;20063;-76
2024/02/22 20:10:56;;;;;;;3.95;1.95;;;;;;;;;;10569819;27;20145;-76
2024/02/22 20:16:00;;;;;;;6.32;1.95;;;;;;;;;;10580394;27;20080;-77
2024/02/22 20:21:03;;;;;;;7.15;2.63;;;;;;;;;;10573522;27;20066;-78
2024/02/22 20:26:10;;;;;;;13.93;5.00;;;;;;;;;;10569218;27;20041;-76
2024/02/22 20:31:13;;;;;;;8.57;4.15;;;;;;;;;;10571442;27;20114;-77
2024/02/22 20:36:16;;;;;;;8.30;4.07;;;;;;;;;;10572900;27;20067;-77
2024/02/22 20:41:27;;;;;;;7.35;2.00;;;;;;;;;;10580084;27;20123;-75
2024/02/22 20:46:30;;;;;;;13.48;4.80;;;;;;;;;;10562032;27;20454;-78
2024/02/22 20:51:33;;;;;;;6.38;2.85;;;;;;;;;;10567982;27;20039;-77
2024/02/22 20:56:37;;;;;;;11.45;3.97;;;;;;;;;;10557934;27;20069;-77
2024/02/22 21:01:39;;;;;;;;;;;;;;;;;;10567302;27;20040;-76
2024/02/22 21:06:42;;;;;;;8.30;3.10;;;;;;;;;;10568883;27;19920;-76
2024/02/22 21:11:51;;;;;;;8.30;3.57;;;;;;;;;;10568387;27;20043;-78
2024/02/22 21:16:53;;;;;;;6.90;3.67;;;;;;;;;;10568318;27;20052;-78
2024/02/22 21:21:56;;;;;;;10.70;5.05;;;;;;;;;;10570745;27;20040;-77
2024/02/22 21:27:00;;;;;;;10.20;4.45;;;;;;;;;;10554618;27;20083;-76
2024/02/22 21:32:03;;;;;;;10.93;3.80;;;;;;;;;;10567294;27;20031;-77
2024/02/22 21:37:06;;;;;;;8.82;3.65;;;;;;;;;;10547366;27;20130;-76
2024/02/22 21:42:12;;;;;;;5.93;3.15;;;;;;;;;;10565868;27;20095;-75
2024/02/22 21:47:15;;;;;;;4.13;2.20;;;;;;;;;;10559354;27;20051;-76
2024/02/22 21:52:18;;;;;;;10.00;3.58;;;;;;;;;;10566544;27;20035;-77
2024/02/22 21:57:22;;;;;;;7.35;2.88;;;;;;;;;;10568589;27;20454;-76
2024/02/22 22:02:25;;;;;;;13.50;5.40;;;;;;;;;;10561269;27;20054;-75
2024/02/22 22:07:28;;;;;;;11.45;4.53;;;;;;;;;;10556617;27;20094;-74
2024/02/22 22:12:32;;;;;;;6.10;3.67;;;;;;;;;;10568772;27;20043;-77
2024/02/22 22:17:35;;;;;;;6.47;3.15;;;;;;;;;;10561516;27;20094;-75
2024/02/22 22:22:38;;;;;;;6.82;3.75;;;;;;;;;;10573493;27;20395;-76
2024/02/22 22:27:43;;;;;;;12.95;5.18;;;;;;;;;;10567301;27;20492;-77
2024/02/22 22:32:46;;;;;;;11.77;4.50;;;;;;;;;;10557767;27;20068;-76
2024/02/22 22:37:49;;;;;;;10.55;4.63;;;;;;;;;;10566080;28;20085;-76
2024/02/22 22:42:53;;;;;;;7.30;3.13;;;;;;;;;;10558448;28;20072;-74
2024/02/22 22:47:58;;;;;;;10.20;4.20;;;;;;;;;;10567802;28;20100;-75
2024/02/22 22:53:03;;;;;;;7.93;3.45;;;;;;;;;;10567374;28;20063;-76
2024/02/22 22:58:07;;;;;;;11.43;5.28;;;;;;;;;;10554759;28;20367;-74
2024/02/22 23:03:09;;;;;;;;;;;;;;;;;;10558535;28;20043;-76
2024/02/22 23:08:12;;;;;;;11.48;5.18;;;;;;;;;;10561773;28;19927;-76
2024/02/22 23:13:17;;;;;;;5.17;2.73;;;;;;;;;;10555692;28;20043;-76
2024/02/22 23:18:19;;;;;;;4.22;1.90;;;;;;;;;;10566066;28;20099;-75
2024/02/22 23:23:22;;;;;;;1.65;0.38;;;;;;;;;;10566212;28;20036;-75
2024/02/22 23:28:26;;;;;;;1.75;0.50;;;;;;;;;;10568641;27;20047;-76
2024/02/22 23:33:29;;;;;;;;;;;;;;;;;;10579450;27;20517;-76
2024/02/22 23:38:31;;;;;;;0.10;0.10;;;;;;;;;;10570878;27;19919;-75
2024/02/22 23:43:35;;;;;;;0.73;0.30;;;;;;;;;;10568498;27;20047;-75
2024/02/22 23:48:41;;;;;;;;;;;;;;;;;;10566160;27;20078;-76
2024/02/22 23:53:44;;;;;;;0.10;0.10;;;;;;;;;;10561108;27;19920;-76
2024/02/22 23:58:48;;;;;;;0.70;0.10;;;;;;;;;;10569697;27;20071;-77
